Аэропорт: Байкал. Улан-Удэ

ICAO: UIUU

METAR:
2018/05/20 19:30
UIUU 201930Z 23002MPS 180V300 9999 -SHSN OVC022CB 02/M02 Q1015 R26/190055 NOSIG RMK QFE717/0956
METAR:
2018/05/20 18:24
TAF UIUU 201700Z 2018/2118 32008G16MPS 9999 -SHSNRA OVC020CB 
      TEMPO 2018/2112 34014G20MPS 2500 -SHSN OVC011CB